Time;durP1;ratioP1;P1;durP2;ratioP2;P2;SDS_P1;SDS_P2;PMS_P1;PMS_P2;Temp;Humidity;BMP_temperature;BMP_pressure;BME280_temperature;BME280_humidity;BME280_pressure;Samples;Min_cycle;Max_cycle;Signal;HPM_P1;HPM_P2
2022/02/12 00:01:03;;;;;;;5.68;1.88;;;1.10;99.90;;;;;;4990903;28;20049;-71
2022/02/12 00:03:30;;;;;;;4.28;0.80;;;1.10;99.90;;;;;;4989528;28;20800;-67
2022/02/12 00:05:57;;;;;;;5.47;2.42;;;1.10;99.90;;;;;;4990847;28;21741;-66
2022/02/12 00:08:24;;;;;;;3.13;0.80;;;1.20;99.90;;;;;;4991581;28;20061;-65
2022/02/12 00:10:51;;;;;;;3.70;1.33;;;1.10;99.90;;;;;;4994766;28;20161;-66
2022/02/12 00:13:18;;;;;;;1.13;0.43;;;1.10;99.90;;;;;;4992631;28;20081;-65
2022/02/12 00:15:45;;;;;;;3.33;0.75;;;1.20;99.90;;;;;;4992778;28;20069;-70
2022/02/12 00:18:12;;;;;;;2.72;1.20;;;1.10;99.90;;;;;;4990831;28;20069;-64
2022/02/12 00:20:50;;;;;;;1.45;0.50;;;1.10;99.90;;;;;;3018869;28;10002577;-69
2022/02/12 00:23:17;;;;;;;5.68;0.75;;;1.10;99.90;;;;;;2583133;28;10001702;-68
2022/02/12 00:25:44;;;;;;;4.95;1.00;;;1.10;99.90;;;;;;4996807;28;20192;-63
2022/02/12 00:28:11;;;;;;;2.70;0.50;;;1.10;99.90;;;;;;4997096;28;20066;-66
2022/02/12 00:30:38;;;;;;;3.30;0.75;;;1.10;99.90;;;;;;4997469;28;20474;-65
2022/02/12 00:33:08;;;;;;;5.05;0.70;;;1.10;99.90;;;;;;4997105;28;20200;-64
2022/02/12 00:35:35;;;;;;;4.03;1.38;;;1.00;99.90;;;;;;4995216;28;20057;-68
2022/02/12 00:38:02;;;;;;;1.50;0.82;;;1.00;99.90;;;;;;4995420;28;20561;-69
2022/02/12 00:40:29;;;;;;;1.15;0.65;;;1.00;99.90;;;;;;4991594;28;20975;-66
2022/02/12 00:42:56;;;;;;;2.22;1.13;;;1.00;99.90;;;;;;4997093;28;20499;-66
2022/02/12 00:45:23;;;;;;;2.60;0.75;;;1.00;99.90;;;;;;4993869;28;20124;-68
2022/02/12 00:47:50;;;;;;;2.33;0.45;;;0.90;99.90;;;;;;4990761;28;20167;-70
2022/02/12 00:50:17;;;;;;;1.85;0.82;;;1.00;99.90;;;;;;4993511;28;20057;-63
2022/02/12 00:52:44;;;;;;;1.23;0.65;;;1.00;99.90;;;;;;4992989;28;20073;-67
2022/02/12 00:55:11;;;;;;;3.20;0.63;;;0.90;99.90;;;;;;4995281;28;20157;-66
2022/02/12 00:57:38;;;;;;;7.43;1.23;;;1.00;99.90;;;;;;4992070;28;20088;-64
2022/02/12 01:00:06;;;;;;;1.92;0.93;;;1.00;99.90;;;;;;4994599;28;20056;-68
2022/02/12 01:02:33;;;;;;;1.58;0.90;;;1.00;99.90;;;;;;4994089;28;20058;-69
2022/02/12 01:05:00;;;;;;;4.07;0.68;;;1.10;99.90;;;;;;4996092;28;20247;-65
2022/02/12 01:07:27;;;;;;;3.90;0.95;;;1.10;99.90;;;;;;4991943;28;20065;-66
2022/02/12 01:09:54;;;;;;;3.33;0.45;;;1.10;99.90;;;;;;4993448;28;20145;-69
2022/02/12 01:12:21;;;;;;;2.55;0.73;;;1.10;99.90;;;;;;4994915;28;20124;-68
2022/02/12 01:14:48;;;;;;;2.30;0.77;;;1.10;99.90;;;;;;4994247;28;20172;-64
2022/02/12 01:17:15;;;;;;;2.80;0.85;;;1.10;99.90;;;;;;4995745;28;20116;-66
2022/02/12 01:19:44;;;;;;;3.63;0.98;;;1.10;99.90;;;;;;4987526;28;20215;-68
2022/02/12 01:22:11;;;;;;;4.47;2.05;;;1.10;99.90;;;;;;4991267;28;20137;-69
2022/02/12 01:24:39;;;;;;;5.70;0.88;;;1.00;99.90;;;;;;4984430;28;21703;-66
2022/02/12 01:27:06;;;;;;;2.75;0.68;;;1.10;99.90;;;;;;4992476;28;20061;-66
2022/02/12 01:29:33;;;;;;;1.48;0.63;;;1.00;99.90;;;;;;4994695;28;20160;-67
2022/02/12 01:32:06;;;;;;;2.38;1.00;;;1.00;99.90;;;;;;4993846;28;20124;-68
2022/02/12 01:34:34;;;;;;;1.25;0.30;;;1.00;99.90;;;;;;4986554;28;20217;-68
2022/02/12 01:37:06;;;;;;;2.53;0.50;;;0.90;99.90;;;;;;4975674;28;20477;-72
2022/02/12 01:39:34;;;;;;;3.13;1.00;;;0.90;99.90;;;;;;4970582;28;20066;-68
2022/02/12 01:42:01;;;;;;;5.43;1.00;;;0.90;99.90;;;;;;4995379;28;20056;-67
2022/02/12 01:44:31;;;;;;;1.60;0.60;;;0.90;99.90;;;;;;4995138;28;20161;-65
2022/02/12 01:46:59;;;;;;;3.95;1.17;;;0.90;99.90;;;;;;4996766;28;20153;-66
2022/02/12 01:49:28;;;;;;;7.40;2.78;;;0.90;99.90;;;;;;4995856;28;20144;-67
2022/02/12 01:51:56;;;;;;;5.70;0.77;;;0.90;99.90;;;;;;4994262;28;21689;-65
2022/02/12 01:54:25;;;;;;;5.70;0.60;;;0.90;99.90;;;;;;4995278;28;20137;-69
2022/02/12 01:56:53;;;;;;;2.97;1.05;;;0.90;99.90;;;;;;4990989;28;20721;-68
2022/02/12 01:59:24;;;;;;;2.65;1.13;;;0.90;99.90;;;;;;4994293;28;20042;-66
2022/02/12 02:01:52;;;;;;;6.07;1.33;;;0.90;99.90;;;;;;4993234;28;20140;-69
2022/02/12 02:04:19;;;;;;;3.70;1.52;;;0.90;99.90;;;;;;4995367;28;20139;-66
2022/02/12 02:06:47;;;;;;;2.15;0.68;;;0.90;99.90;;;;;;4992404;28;20111;-69
2022/02/12 02:09:18;;;;;;;7.10;1.05;;;0.90;99.90;;;;;;4993659;28;20137;-64
2022/02/12 02:11:48;;;;;;;7.47;0.70;;;0.90;99.90;;;;;;4995099;28;20115;-67
2022/02/12 02:14:16;;;;;;;4.07;1.00;;;0.90;99.90;;;;;;4992073;28;20136;-69
2022/02/12 02:16:44;;;;;;;3.72;2.63;;;1.00;99.90;;;;;;4994758;28;20141;-67
2022/02/12 02:19:13;;;;;;;6.20;0.85;;;1.00;99.90;;;;;;4993298;28;20145;-65
2022/02/12 02:21:40;;;;;;;1.92;0.68;;;0.90;99.90;;;;;;4992330;28;20041;-68
2022/02/12 02:24:08;;;;;;;3.45;0.90;;;1.00;99.90;;;;;;4994270;28;20085;-67
2022/02/12 02:26:36;;;;;;;5.70;1.15;;;1.00;99.90;;;;;;4994535;28;20856;-64
2022/02/12 02:29:03;;;;;;;4.45;0.95;;;1.00;99.90;;;;;;4995736;28;20100;-68
2022/02/12 02:31:30;;;;;;;2.90;1.33;;;1.00;99.90;;;;;;4993633;28;20137;-65
2022/02/12 02:33:57;;;;;;;1.15;0.57;;;1.00;99.90;;;;;;4992171;28;20063;-68
2022/02/12 02:36:24;;;;;;;1.25;0.82;;;1.00;99.90;;;;;;4992988;28;20625;-67
2022/02/12 02:38:51;;;;;;;4.22;0.95;;;1.00;99.90;;;;;;4994548;28;20050;-66
2022/02/12 02:41:18;;;;;;;7.47;1.08;;;1.00;99.90;;;;;;4991996;28;20619;-67
2022/02/12 02:43:45;;;;;;;2.85;1.40;;;1.10;99.90;;;;;;4989563;28;20131;-67
2022/02/12 02:46:17;;;;;;;2.25;0.75;;;1.10;99.90;;;;;;4991942;28;20042;-66
2022/02/12 02:48:44;;;;;;;4.57;0.52;;;1.10;99.90;;;;;;4993739;28;20049;-69
2022/02/12 02:56:43;;;;;;;4.07;1.02;;;1.10;99.90;;;;;;4995928;28;20058;-66
2022/02/12 02:59:10;;;;;;;2.55;1.05;;;1.20;99.90;;;;;;4993051;28;20140;-67
2022/02/12 03:01:37;;;;;;;8.23;1.10;;;1.20;99.90;;;;;;4990033;28;20645;-67
2022/02/12 03:04:04;;;;;;;15.10;1.83;;;1.20;99.90;;;;;;4993214;28;20295;-68
2022/02/12 03:06:31;;;;;;;5.35;0.90;;;1.20;99.90;;;;;;4992185;28;20058;-67
2022/02/12 03:08:59;;;;;;;5.00;1.45;;;1.20;99.90;;;;;;4991486;28;20155;-68
2022/02/12 03:11:26;;;;;;;7.05;0.85;;;1.20;99.90;;;;;;4992213;28;20046;-68
2022/02/12 03:13:57;;;;;;;3.30;1.23;;;1.20;99.90;;;;;;4991779;28;20817;-66
2022/02/12 03:16:24;;;;;;;2.97;1.88;;;1.20;99.90;;;;;;4997182;28;20136;-65
2022/02/12 03:18:51;;;;;;;5.57;1.00;;;1.20;99.90;;;;;;4991667;28;20165;-66
2022/02/12 03:21:18;;;;;;;4.22;1.35;;;1.30;99.90;;;;;;4992696;28;20136;-67
2022/02/12 03:23:45;;;;;;;11.40;2.08;;;1.30;99.90;;;;;;4990322;28;20057;-65
2022/02/12 03:26:13;;;;;;;9.07;2.00;;;1.30;99.90;;;;;;4994162;28;20049;-69
2022/02/12 03:28:41;;;;;;;3.42;2.00;;;1.30;99.90;;;;;;4993665;28;20052;-67
2022/02/12 03:31:08;;;;;;;4.25;1.13;;;1.30;99.90;;;;;;4995087;28;20076;-69
2022/02/12 03:33:36;;;;;;;3.42;0.60;;;1.30;99.90;;;;;;4987642;28;20667;-65
2022/02/12 03:36:04;;;;;;;4.63;0.98;;;1.40;99.90;;;;;;4991108;28;20065;-68
2022/02/12 03:38:33;;;;;;;6.75;1.20;;;1.30;99.90;;;;;;4992512;28;20613;-68
2022/02/12 03:41:02;;;;;;;4.03;1.45;;;1.30;99.90;;;;;;4992603;28;20554;-65
2022/02/12 03:43:31;;;;;;;4.15;1.30;;;1.30;99.90;;;;;;4993177;28;20168;-66
2022/02/12 03:45:59;;;;;;;8.70;1.88;;;1.30;99.90;;;;;;4990883;28;20089;-65
2022/02/12 03:48:27;;;;;;;5.72;1.50;;;1.30;99.90;;;;;;4991520;28;20139;-66
2022/02/12 03:50:55;;;;;;;4.18;1.48;;;1.30;99.90;;;;;;4991395;28;20140;-65
2022/02/12 03:53:22;;;;;;;10.80;1.17;;;1.30;99.90;;;;;;4992600;28;20607;-69
2022/02/12 03:55:50;;;;;;;4.25;1.33;;;1.30;99.90;;;;;;4991005;28;20165;-63
2022/02/12 03:58:19;;;;;;;6.70;1.20;;;1.30;99.90;;;;;;4995005;28;20116;-63
2022/02/12 04:00:47;;;;;;;11.65;2.05;;;1.30;99.90;;;;;;4995805;28;20097;-68
2022/02/12 04:03:15;;;;;;;8.25;1.83;;;1.30;99.90;;;;;;4998819;28;20068;-67
2022/02/12 04:05:44;;;;;;;4.38;1.17;;;1.30;99.90;;;;;;4994933;28;20129;-64
2022/02/12 04:08:13;;;;;;;12.35;2.58;;;1.40;99.90;;;;;;4996230;28;20096;-68
2022/02/12 04:10:40;;;;;;;5.30;1.52;;;1.30;99.90;;;;;;4997507;28;20060;-63
2022/02/12 04:13:07;;;;;;;4.97;1.35;;;1.40;99.90;;;;;;4997826;28;20033;-66
2022/02/12 04:15:34;;;;;;;11.93;2.00;;;1.30;99.90;;;;;;4995439;28;20053;-68
2022/02/12 04:18:02;;;;;;;5.18;1.55;;;1.30;99.90;;;;;;4994050;28;20108;-66
2022/02/12 04:20:32;;;;;;;15.45;1.88;;;1.40;99.90;;;;;;4607591;28;10000746;-65
2022/02/12 04:22:59;;;;;;;6.25;1.23;;;1.40;99.90;;;;;;1374540;28;10002172;-68
2022/02/12 04:25:27;;;;;;;4.35;1.25;;;1.50;99.90;;;;;;4996845;28;20814;-68
2022/02/12 04:27:56;;;;;;;6.30;1.27;;;1.50;99.90;;;;;;4993687;28;20065;-69
2022/02/12 04:30:22;;;;;;;7.85;1.70;;;1.50;99.90;;;;;;4995645;28;20582;-66
2022/02/12 04:32:49;;;;;;;10.10;1.38;;;1.50;99.90;;;;;;4992495;28;20831;-67
2022/02/12 04:35:17;;;;;;;6.22;1.30;;;1.50;99.90;;;;;;4995743;28;20477;-65
2022/02/12 04:37:44;;;;;;;6.55;1.35;;;1.50;99.90;;;;;;4991551;28;20050;-72
2022/02/12 04:40:12;;;;;;;6.60;1.83;;;1.50;99.90;;;;;;4995500;28;20184;-68
2022/02/12 04:42:39;;;;;;;8.65;2.47;;;1.50;99.90;;;;;;4992649;28;20239;-66
2022/02/12 04:45:06;;;;;;;10.05;1.42;;;1.50;99.90;;;;;;4994793;28;20140;-64
2022/02/12 04:47:36;;;;;;;2.85;1.15;;;1.50;99.90;;;;;;4995560;28;20105;-66
2022/02/12 04:50:04;;;;;;;7.87;2.23;;;1.50;99.90;;;;;;4992037;28;20046;-64
2022/02/12 04:52:31;;;;;;;9.45;1.83;;;1.50;99.90;;;;;;4992949;28;20180;-66
2022/02/12 04:54:59;;;;;;;5.72;1.63;;;1.50;99.90;;;;;;4993779;28;21467;-66
2022/02/12 04:57:26;;;;;;;9.13;1.75;;;1.50;99.90;;;;;;4994635;28;20168;-67
2022/02/12 04:59:53;;;;;;;9.02;1.40;;;1.50;99.90;;;;;;4990609;28;20046;-65
2022/02/12 05:02:20;;;;;;;13.65;1.65;;;1.60;99.90;;;;;;4990600;28;20061;-69
2022/02/12 05:04:47;;;;;;;8.15;2.38;;;1.60;99.90;;;;;;4993409;28;20049;-63
2022/02/12 05:07:14;;;;;;;4.93;1.35;;;1.60;99.90;;;;;;4991547;28;20069;-67
2022/02/12 05:09:42;;;;;;;5.60;1.23;;;1.70;99.90;;;;;;4989825;28;20057;-65
2022/02/12 05:12:09;;;;;;;8.43;2.88;;;1.60;99.90;;;;;;4990586;28;20480;-64
2022/02/12 05:14:36;;;;;;;9.50;3.05;;;1.70;99.90;;;;;;4994613;28;20050;-69
2022/02/12 05:17:03;;;;;;;11.23;1.67;;;1.70;99.90;;;;;;4992363;28;20651;-65
2022/02/12 05:19:31;;;;;;;9.32;1.67;;;1.70;99.90;;;;;;4993481;28;20660;-68
2022/02/12 05:21:58;;;;;;;12.25;2.33;;;1.70;99.90;;;;;;4992062;28;20426;-64
2022/02/12 05:24:25;;;;;;;7.03;1.55;;;1.80;99.90;;;;;;4992238;28;20141;-67
2022/02/12 05:26:52;;;;;;;10.02;2.63;;;1.80;99.90;;;;;;4990428;28;20111;-63
2022/02/12 05:29:21;;;;;;;9.70;1.65;;;1.90;99.90;;;;;;4993312;28;20053;-65
2022/02/12 05:31:48;;;;;;;13.57;1.83;;;1.90;99.90;;;;;;4989588;28;20057;-66
2022/02/12 05:34:17;;;;;;;11.23;2.33;;;2.00;99.90;;;;;;4991472;28;20646;-67
2022/02/12 05:36:44;;;;;;;11.98;2.38;;;2.00;99.90;;;;;;4989318;28;20056;-64
2022/02/12 05:39:12;;;;;;;49.58;4.45;;;2.00;99.90;;;;;;4990274;28;20054;-67
2022/02/12 05:41:39;;;;;;;12.15;2.72;;;2.10;99.90;;;;;;4986383;28;20196;-68
2022/02/12 05:44:07;;;;;;;12.45;2.30;;;2.00;99.90;;;;;;4994915;28;20096;-66
2022/02/12 05:46:35;;;;;;;13.25;2.50;;;2.10;99.90;;;;;;4993377;28;20058;-65
2022/02/12 05:49:04;;;;;;;8.18;1.80;;;2.20;99.90;;;;;;4993912;28;20096;-70
2022/02/12 05:51:31;;;;;;;19.45;3.22;;;2.10;99.90;;;;;;4994721;28;20667;-64
2022/02/12 05:54:00;;;;;;;7.95;3.47;;;2.20;99.90;;;;;;4992473;28;20046;-65
2022/02/12 05:56:29;;;;;;;9.48;1.63;;;2.10;99.90;;;;;;4994074;28;20063;-68
2022/02/12 05:58:57;;;;;;;6.95;1.83;;;2.10;99.90;;;;;;4993009;28;20064;-64
2022/02/12 06:01:25;;;;;;;7.45;2.63;;;2.20;99.90;;;;;;4993189;28;20097;-69
2022/02/12 06:03:52;;;;;;;9.70;2.35;;;2.20;99.90;;;;;;4987121;28;20050;-72
2022/02/12 06:06:19;;;;;;;20.80;3.15;;;2.20;99.90;;;;;;4994962;28;20533;-66
2022/02/12 06:08:47;;;;;;;10.45;1.90;;;2.20;99.90;;;;;;4989272;28;20135;-65
2022/02/12 06:11:14;;;;;;;5.28;2.58;;;2.20;99.90;;;;;;4992746;28;20053;-66
2022/02/12 06:13:41;;;;;;;7.85;1.70;;;2.20;99.90;;;;;;4991133;28;20046;-70
2022/02/12 06:16:08;;;;;;;8.55;1.80;;;2.20;99.90;;;;;;4993217;28;20705;-71
2022/02/12 06:18:35;;;;;;;7.38;2.00;;;2.20;99.90;;;;;;4991853;28;20196;-65
2022/02/12 06:21:06;;;;;;;11.93;3.60;;;2.20;99.90;;;;;;4993182;28;20053;-69
2022/02/12 06:23:36;;;;;;;9.93;1.95;;;2.20;99.90;;;;;;4992346;28;20061;-68
2022/02/12 06:26:04;;;;;;;6.55;1.80;;;2.20;99.90;;;;;;4989974;28;20471;-67
2022/02/12 06:28:31;;;;;;;5.85;2.25;;;2.20;99.90;;;;;;4993720;28;20053;-65
2022/02/12 06:31:01;;;;;;;24.85;4.03;;;2.20;99.90;;;;;;4993015;28;20101;-66
2022/02/12 06:33:29;;;;;;;7.68;2.13;;;2.30;99.90;;;;;;4991127;28;20049;-66
2022/02/12 06:35:56;;;;;;;15.93;1.95;;;2.30;99.90;;;;;;4989091;28;20046;-67
2022/02/12 06:38:23;;;;;;;11.02;1.98;;;2.30;99.90;;;;;;4957907;28;20054;-73
2022/02/12 06:41:04;;;;;;;;;;;2.30;99.90;;;;;;2418140;28;10021971;-63
2022/02/12 06:43:30;;;;;;;29.80;4.75;;;2.40;99.90;;;;;;3255445;28;10001112;-66
2022/02/12 06:45:57;;;;;;;20.30;4.00;;;2.40;99.90;;;;;;4969864;28;20165;-66
2022/02/12 06:48:25;;;;;;;8.73;2.20;;;2.40;99.90;;;;;;4975649;28;20046;-65
2022/02/12 06:50:55;;;;;;;10.80;2.67;;;2.40;99.90;;;;;;4991214;28;20527;-65
2022/02/12 06:53:22;;;;;;;7.68;1.48;;;2.40;99.90;;;;;;4991104;28;20050;-66
2022/02/12 06:55:50;;;;;;;11.75;2.08;;;2.50;99.90;;;;;;4989984;28;20184;-63
2022/02/12 06:58:17;;;;;;;18.50;2.78;;;2.50;99.90;;;;;;4991631;28;20132;-65
2022/02/12 07:00:44;;;;;;;11.90;2.40;;;2.50;99.90;;;;;;4990481;28;20119;-65
2022/02/12 07:03:11;;;;;;;18.13;3.60;;;2.50;99.90;;;;;;4989899;28;20050;-65
2022/02/12 07:05:38;;;;;;;19.05;2.42;;;2.50;99.90;;;;;;4990765;28;20256;-63
2022/02/12 07:08:06;;;;;;;14.48;3.35;;;2.50;99.90;;;;;;4973505;28;20125;-69
2022/02/12 07:10:34;;;;;;;20.17;4.28;;;2.50;99.90;;;;;;4992472;28;20140;-69
2022/02/12 07:13:02;;;;;;;10.98;2.40;;;2.50;99.90;;;;;;4990192;28;20118;-69
2022/02/12 07:15:30;;;;;;;10.18;2.38;;;2.60;99.90;;;;;;4989334;28;20042;-69
2022/02/12 07:17:57;;;;;;;14.60;2.88;;;2.60;99.90;;;;;;4989445;28;20159;-66
2022/02/12 07:20:24;;;;;;;15.35;2.97;;;2.50;99.90;;;;;;4991465;28;20117;-66
2022/02/12 07:22:51;;;;;;;20.27;2.53;;;2.60;99.90;;;;;;4988699;28;20152;-68
2022/02/12 07:25:18;;;;;;;25.20;4.32;;;2.60;99.90;;;;;;4990549;28;20058;-70
2022/02/12 07:27:45;;;;;;;9.50;2.55;;;2.50;99.90;;;;;;4987392;28;20688;-64
2022/02/12 07:30:15;;;;;;;19.52;3.08;;;2.60;99.90;;;;;;5021338;28;20057;-65
2022/02/12 07:32:43;;;;;;;16.70;3.17;;;2.60;99.90;;;;;;4991886;28;20050;-67
2022/02/12 07:35:12;;;;;;;12.27;3.35;;;2.60;99.90;;;;;;4993455;28;22221;-66
2022/02/12 07:37:41;;;;;;;11.73;2.85;;;2.60;99.90;;;;;;4989424;28;20089;-71
2022/02/12 07:40:12;;;;;;;12.00;2.85;;;2.60;99.90;;;;;;4991126;28;20153;-68
2022/02/12 07:42:39;;;;;;;13.32;2.45;;;2.60;99.90;;;;;;4992654;28;20089;-67
2022/02/12 07:45:07;;;;;;;10.32;2.88;;;2.60;99.90;;;;;;4992706;28;20192;-69
2022/02/12 07:47:36;;;;;;;10.15;2.28;;;2.50;99.90;;;;;;4991715;28;20057;-64
2022/02/12 07:50:05;;;;;;;14.15;3.10;;;2.60;99.90;;;;;;4989393;28;20403;-65
2022/02/12 07:52:33;;;;;;;10.80;3.58;;;2.60;99.90;;;;;;4991205;28;20060;-71
2022/02/12 07:55:00;;;;;;;16.33;2.67;;;2.50;99.90;;;;;;4991095;28;20642;-67
2022/02/12 07:57:27;;;;;;;12.88;2.63;;;2.50;99.90;;;;;;4987977;28;20595;-65
2022/02/12 07:59:54;;;;;;;12.18;2.28;;;2.50;99.90;;;;;;4990187;28;20176;-68
2022/02/12 08:02:21;;;;;;;16.73;3.42;;;2.50;99.90;;;;;;4991492;28;20064;-67
2022/02/12 08:04:47;;;;;;;16.35;2.97;;;2.50;99.90;;;;;;4990375;28;20144;-66
2022/02/12 08:07:29;;;;;;;14.60;2.47;;;2.40;99.90;;;;;;4991668;28;20152;-66
2022/02/12 08:11:22;;;;;;;15.73;2.90;;;2.50;99.90;;;;;;4986265;28;20053;-69
2022/02/12 08:12:49;;;;;;;13.45;2.78;;;2.40;99.90;;;;;;4990827;28;20054;-67
2022/02/12 08:15:16;;;;;;;14.07;4.88;;;2.50;99.90;;;;;;4991192;28;20081;-66
2022/02/12 08:17:43;;;;;;;11.55;2.55;;;2.50;99.90;;;;;;4987687;28;20050;-69
2022/02/12 08:20:11;;;;;;;10.05;2.13;;;2.40;99.90;;;;;;4955678;28;20050;-64
2022/02/12 08:22:44;;;;;;;12.93;2.73;;;2.50;99.90;;;;;;3702054;28;10024215;-65
2022/02/12 08:25:11;;;;;;;17.13;2.88;;;2.50;99.90;;;;;;1719299;28;10002025;-66
2022/02/12 08:27:38;;;;;;;11.65;4.47;;;2.50;99.90;;;;;;4988827;28;20066;-66
2022/02/12 08:30:07;;;;;;;8.75;2.30;;;2.50;99.90;;;;;;4990404;28;21315;-66
2022/02/12 08:32:35;;;;;;;13.38;2.25;;;2.40;99.90;;;;;;4991306;28;20081;-69
2022/02/12 08:35:03;;;;;;;15.45;3.78;;;2.40;99.90;;;;;;4993496;28;20119;-66
2022/02/12 08:37:30;;;;;;;13.82;2.67;;;2.40;99.90;;;;;;4992168;28;20042;-65
2022/02/12 08:39:56;;;;;;;9.50;2.50;;;2.40;99.90;;;;;;4992065;28;20130;-69
2022/02/12 08:42:23;;;;;;;17.27;3.83;;;2.40;99.90;;;;;;4990392;28;20140;-66
2022/02/12 08:44:50;;;;;;;13.80;2.58;;;2.40;99.90;;;;;;4995696;28;20897;-68
2022/02/12 08:47:17;;;;;;;14.88;4.72;;;2.40;99.90;;;;;;4995669;28;20495;-66
2022/02/12 08:49:44;;;;;;;7.53;1.80;;;2.40;99.90;;;;;;4990181;28;20061;-69
2022/02/12 08:52:11;;;;;;;10.55;2.67;;;2.40;99.90;;;;;;4992869;28;20062;-65
2022/02/12 08:54:38;;;;;;;9.43;2.35;;;2.30;99.90;;;;;;4991601;28;20049;-69
2022/02/12 08:57:05;;;;;;;8.50;2.05;;;2.30;99.90;;;;;;4992042;28;20147;-64
2022/02/12 08:59:32;;;;;;;11.95;3.05;;;2.30;99.90;;;;;;4993709;28;20132;-67
2022/02/12 09:02:13;;;;;;;12.35;3.05;;;2.30;99.90;;;;;;2462606;28;10024329;-65
2022/02/12 09:04:41;;;;;;;17.88;2.15;;;2.30;99.90;;;;;;3956471;28;10001070;-68
2022/02/12 09:07:09;;;;;;;18.40;2.95;;;2.40;99.90;;;;;;4991723;28;21532;-66
2022/02/12 09:09:38;;;;;;;16.40;2.80;;;2.40;99.90;;;;;;4995028;28;20132;-67
2022/02/12 09:12:05;;;;;;;17.10;3.30;;;2.40;99.90;;;;;;4992421;28;20140;-68
2022/02/12 09:14:32;;;;;;;25.17;4.95;;;2.40;99.90;;;;;;4993610;28;20042;-65
2022/02/12 09:16:59;;;;;;;12.90;3.03;;;2.30;99.90;;;;;;4993474;28;20187;-69
2022/02/12 09:19:26;;;;;;;12.18;3.35;;;2.40;99.90;;;;;;4995561;28;20166;-67
2022/02/12 09:21:53;;;;;;;12.30;2.80;;;2.30;99.90;;;;;;4990572;28;20144;-66
2022/02/12 09:24:20;;;;;;;14.73;2.50;;;2.30;99.90;;;;;;4994373;28;20650;-65
2022/02/12 09:26:47;;;;;;;20.95;2.55;;;2.30;99.90;;;;;;4993248;28;20090;-68
2022/02/12 09:29:14;;;;;;;12.05;4.70;;;2.40;99.90;;;;;;4993583;28;20057;-66
2022/02/12 09:31:41;;;;;;;13.35;3.50;;;2.40;99.90;;;;;;4993068;28;20520;-67
2022/02/12 09:34:08;;;;;;;9.55;2.70;;;2.30;99.90;;;;;;4991536;28;20461;-67
2022/02/12 09:36:37;;;;;;;16.20;3.35;;;2.40;99.90;;;;;;4994180;28;20053;-64
2022/02/12 09:39:07;;;;;;;17.33;3.20;;;2.40;99.90;;;;;;4995431;28;20054;-70
2022/02/12 09:41:36;;;;;;;11.07;2.87;;;2.40;99.90;;;;;;4991743;28;20060;-64
2022/02/12 09:44:03;;;;;;;13.30;4.05;;;2.50;99.90;;;;;;4993604;28;20565;-67
2022/02/12 09:46:42;;;;;;;18.20;3.83;;;2.50;99.90;;;;;;4859380;28;21543;-68
2022/02/12 09:49:09;;;;;;;15.95;3.03;;;2.60;99.90;;;;;;1031442;28;10002241;-69
2022/02/12 09:51:39;;;;;;;14.30;4.47;;;2.60;99.90;;;;;;4990852;28;20054;-66
2022/02/12 09:54:06;;;;;;;30.75;5.30;;;2.50;99.90;;;;;;4993524;28;20049;-66
2022/02/12 09:56:40;;;;;;;19.15;4.32;;;2.50;99.90;;;;;;4992139;28;20455;-65
2022/02/12 09:59:07;;;;;;;14.52;2.92;;;2.50;99.90;;;;;;4994684;28;20279;-67
2022/02/12 10:01:38;;;;;;;39.70;5.57;;;2.50;99.90;;;;;;4991984;28;20213;-65
2022/02/12 10:04:14;;;;;;;14.55;3.10;;;2.50;99.90;;;;;;4991216;28;20050;-65
2022/02/12 10:06:43;;;;;;;16.85;3.40;;;2.50;99.90;;;;;;4993632;28;20058;-66
2022/02/12 10:09:10;;;;;;;18.58;2.78;;;2.50;99.90;;;;;;4990211;28;20060;-66
2022/02/12 10:11:40;;;;;;;14.73;3.28;;;2.50;99.90;;;;;;4994721;28;20061;-65
2022/02/12 10:14:15;;;;;;;14.55;3.25;;;2.50;99.90;;;;;;4991654;28;20046;-66
2022/02/12 10:17:00;;;;;;;14.05;2.85;;;2.50;99.90;;;;;;4989703;28;20614;-65
2022/02/12 10:19:44;;;;;;;18.63;2.55;;;2.60;99.90;;;;;;4989834;28;20064;-65
2022/02/12 10:22:13;;;;;;;18.75;2.90;;;2.60;99.90;;;;;;4988482;28;21123;-69
2022/02/12 10:24:53;;;;;;;13.07;2.40;;;2.60;99.90;;;;;;5003740;28;20486;-64
2022/02/12 10:27:25;;;;;;;15.75;3.40;;;2.70;99.90;;;;;;4998405;28;20477;-70
2022/02/12 10:29:58;;;;;;;14.73;3.08;;;2.70;99.90;;;;;;4988111;28;20054;-64
2022/02/12 10:32:26;;;;;;;11.52;2.60;;;2.80;99.90;;;;;;4980916;28;20054;-70
2022/02/12 10:34:56;;;;;;;13.32;2.95;;;2.70;99.90;;;;;;4978648;28;20137;-67
2022/02/12 10:37:24;;;;;;;11.93;3.63;;;2.70;99.90;;;;;;4985065;28;20107;-70
2022/02/12 10:39:55;;;;;;;14.85;2.58;;;2.70;99.90;;;;;;4972988;28;20202;-69
2022/02/12 10:42:25;;;;;;;14.98;2.30;;;2.60;99.90;;;;;;4991232;28;20054;-64
2022/02/12 10:44:55;;;;;;;14.32;2.63;;;2.60;99.90;;;;;;4992498;28;20061;-64
2022/02/12 10:47:23;;;;;;;12.60;2.88;;;2.60;99.90;;;;;;4990632;28;20123;-66
2022/02/12 10:49:51;;;;;;;16.20;3.63;;;2.70;99.90;;;;;;4989564;28;20140;-68
2022/02/12 10:52:19;;;;;;;10.18;2.63;;;2.70;99.90;;;;;;4992788;28;20048;-64
2022/02/12 10:54:49;;;;;;;16.17;4.22;;;2.70;99.90;;;;;;4989294;28;20046;-66
2022/02/12 10:57:18;;;;;;;12.63;2.60;;;2.80;99.90;;;;;;4991161;28;21478;-67
2022/02/12 10:59:45;;;;;;;16.60;4.47;;;2.80;99.90;;;;;;4990815;28;20081;-64
2022/02/12 11:02:15;;;;;;;23.83;4.55;;;2.80;99.90;;;;;;4992869;28;20054;-67
2022/02/12 11:04:43;;;;;;;21.98;2.85;;;2.90;99.90;;;;;;4992770;28;20058;-65
2022/02/12 11:07:16;;;;;;;20.08;2.60;;;2.90;99.90;;;;;;4991994;28;20102;-64
2022/02/12 11:09:44;;;;;;;18.42;2.80;;;2.90;99.90;;;;;;4991827;28;20155;-67
2022/02/12 11:12:13;;;;;;;17.98;4.35;;;2.90;99.90;;;;;;4990837;28;20588;-67
2022/02/12 11:14:43;;;;;;;15.52;2.97;;;3.00;99.90;;;;;;4992064;28;20049;-66
2022/02/12 11:17:15;;;;;;;11.48;2.90;;;3.00;99.90;;;;;;4993009;28;20483;-67
2022/02/12 11:19:44;;;;;;;26.73;5.07;;;3.00;99.90;;;;;;4990985;28;20053;-64
2022/02/12 11:22:11;;;;;;;19.33;3.03;;;3.10;99.90;;;;;;4993405;28;20153;-70
2022/02/12 11:24:44;;;;;;;17.90;3.08;;;3.10;99.90;;;;;;4992184;28;20152;-71
2022/02/12 11:27:30;;;;;;;17.50;5.72;;;3.10;99.90;;;;;;5010555;28;20090;-65
2022/02/12 11:30:13;;;;;;;21.27;2.88;;;3.20;99.90;;;;;;4991214;28;20049;-64
2022/02/12 11:32:45;;;;;;;20.85;3.13;;;3.10;99.90;;;;;;4996040;28;20056;-71
2022/02/12 11:35:12;;;;;;;16.55;3.03;;;3.20;99.90;;;;;;4993138;28;20080;-69
2022/02/12 11:37:49;;;;;;;24.98;2.88;;;3.20;99.90;;;;;;4992771;28;20397;-64
2022/02/12 11:40:18;;;;;;;13.98;3.83;;;3.20;99.90;;;;;;4993062;28;20087;-68
2022/02/12 11:42:53;;;;;;;14.93;4.63;;;3.20;99.90;;;;;;4939619;28;20050;-64
2022/02/12 11:45:35;;;;;;;27.70;2.70;;;3.20;99.90;;;;;;1040095;28;10022990;-66
2022/02/12 11:48:26;;;;;;;26.50;6.97;;;3.30;99.90;;;;;;4625756;28;10001413;-66
2022/02/12 11:51:03;;;;;;;21.05;4.57;;;3.30;99.90;;;;;;4970240;28;20054;-65
2022/02/12 11:53:35;;;;;;;16.45;2.17;;;3.30;99.90;;;;;;4968502;28;20082;-68
2022/02/12 11:56:26;;;;;;;20.92;3.50;;;3.30;99.90;;;;;;4969875;28;20112;-70
2022/02/12 11:58:55;;;;;;;20.88;3.20;;;3.30;99.90;;;;;;4972752;28;20121;-65
2022/02/12 12:01:25;;;;;;;17.42;2.83;;;3.30;99.90;;;;;;4966801;28;20184;-66
2022/02/12 12:04:11;;;;;;;23.02;2.35;;;3.30;99.90;;;;;;4966752;28;20157;-65
2022/02/12 12:06:58;;;;;;;16.02;2.72;;;3.30;99.90;;;;;;4967746;28;20696;-64
2022/02/12 12:09:26;;;;;;;14.10;3.72;;;3.30;99.90;;;;;;4961555;28;20056;-66
2022/02/12 12:12:14;;;;;;;21.27;2.58;;;3.30;99.90;;;;;;4962512;28;20073;-71
2022/02/12 12:14:41;;;;;;;14.05;1.92;;;3.30;99.90;;;;;;4969455;28;20058;-67
2022/02/12 12:17:08;;;;;;;12.30;2.70;;;3.30;99.90;;;;;;4965476;28;20054;-67
2022/02/12 12:19:41;;;;;;;19.70;2.92;;;3.30;99.90;;;;;;4974752;28;20077;-66
2022/02/12 12:22:13;;;;;;;13.30;2.10;;;3.30;99.90;;;;;;4992683;28;20054;-64
2022/02/12 12:24:40;;;;;;;16.63;3.35;;;3.30;99.90;;;;;;4989720;28;20131;-67
2022/02/12 12:27:10;;;;;;;15.20;2.80;;;3.30;99.90;;;;;;4995072;28;20058;-67
2022/02/12 12:32:30;;;;;;;11.13;1.80;;;3.40;99.90;;;;;;4993622;28;20049;-65
2022/02/12 12:35:03;;;;;;;17.63;2.38;;;3.40;99.90;;;;;;4994825;28;20053;-68
2022/02/12 12:37:54;;;;;;;20.83;2.28;;;3.40;99.90;;;;;;4991012;28;20101;-66
2022/02/12 12:40:32;;;;;;;6.90;1.60;;;3.40;99.90;;;;;;4993822;28;21514;-66
2022/02/12 12:43:04;;;;;;;9.10;3.35;;;3.40;99.90;;;;;;4998240;28;20181;-69
2022/02/12 12:45:38;;;;;;;7.20;1.60;;;3.40;99.90;;;;;;4995530;28;20120;-69
2022/02/12 12:48:06;;;;;;;10.43;1.98;;;3.40;99.90;;;;;;4991806;28;20437;-70
2022/02/12 12:50:37;;;;;;;8.43;3.40;;;3.30;99.90;;;;;;4995773;28;20172;-65
2022/02/12 12:53:12;;;;;;;6.45;1.60;;;3.30;99.90;;;;;;4995374;28;20053;-70
2022/02/12 12:55:45;;;;;;;6.43;1.40;;;3.30;99.90;;;;;;4991507;28;20073;-70
2022/02/12 12:58:17;;;;;;;10.98;2.42;;;3.30;99.90;;;;;;4990277;28;20820;-67
2022/02/12 13:00:44;;;;;;;17.40;3.53;;;3.30;99.90;;;;;;4992190;28;20116;-65
2022/02/12 13:03:11;;;;;;;27.80;5.53;;;3.30;99.90;;;;;;5007625;28;20471;-70
2022/02/12 13:05:39;;;;;;;8.02;1.77;;;3.30;99.90;;;;;;4990217;28;20103;-69
2022/02/12 13:08:08;;;;;;;11.45;1.88;;;3.20;99.90;;;;;;4989900;28;21848;-68